Airfield :







YOU CAN JOIN US ON...

 
LOGIN :

Register | Disclaimer

   EN    FR    IT 

 









Legend :    VFR   Marginal VFR   IFR   Intensive IFR   Very Intensive IFR
Visi :
Ceiling :
>= 8 km
>= 3000ft
5 to 8 km
1000 to 3000 ft
1500m to 5 km
500 to 1000 ft
800 to 1500m
200 to 500 ft
< 800m
< 200 ft
Symbols :   Thunderstorms  Fog  Heavy snow  Heavy precipitations  Wind > 20 kt







- Airport Elevation : 489 ft


KHUL - Houlton International

CURRENT METAR :
  • 150653Z AUTO 22007KT 10SM OVC006 16/14 A2999 RMK AO2 SLP159 T01560139

EXPIRED METARs :
  • 150553Z AUTO 21007KT 10SM OVC007 15/14 A3001 RMK AO2 CIG 005V010 SLP164 T01500139 10150 20139 56010
  • 150453Z AUTO 22009G16KT 10SM OVC006 15/14 A3002 RMK AO2 SLP168 T01500139 401500067

TAF KHUL
Valid from the 15 at 06:00 until the 16 at 06:00 UTC


150549Z 1506/1606 21007KT P6SM BKN006
FM150800 22006KT 4SM BR BKN004
FM151000 23008KT P6SM BKN007
FM151300 26010KT P6SM SCT035
FM160200 28005KT P6SM SCT060
No reported NOTAMs for that airfield.



MET'MAP, your aeronautical weather chart ! - Copyright ORBIFLY December 2007 - Disclaimer

ORBIFLY MET'MAP TEAM :

Programming & Development : Alexandra Zaïnal
Concept & Development : Baudouin d'Aumeries
Co-Development & Prog : Marc-Olivier Méhu
Technical & hardware support : Manuel Goepfert

Contact : metmap@orbifly.com




SOURCES & CREDITS :

   NOAA